sensor_id;sensor_type;location;lat;lon;timestamp;temperature;humidity
9466;DHT22;4771;48.726;9.006;2023-03-23T00:01:46;12.80;96.20
9466;DHT22;4771;48.726;9.006;2023-03-23T00:04:15;12.80;95.90
9466;DHT22;4771;48.726;9.006;2023-03-23T00:06:43;12.90;95.60
9466;DHT22;4771;48.726;9.006;2023-03-23T00:09:11;12.90;95.90
9466;DHT22;4771;48.726;9.006;2023-03-23T00:11:38;13.00;95.60
9466;DHT22;4771;48.726;9.006;2023-03-23T00:14:05;13.00;95.60
9466;DHT22;4771;48.726;9.006;2023-03-23T00:16:39;13.00;95.40
9466;DHT22;4771;48.726;9.006;2023-03-23T00:19:07;13.10;95.20
9466;DHT22;4771;48.726;9.006;2023-03-23T00:21:37;13.10;95.40
9466;DHT22;4771;48.726;9.006;2023-03-23T00:24:07;13.10;95.30
9466;DHT22;4771;48.726;9.006;2023-03-23T00:26:36;13.20;95.70
9466;DHT22;4771;48.726;9.006;2023-03-23T00:29:07;13.20;95.50
9466;DHT22;4771;48.726;9.006;2023-03-23T00:31:38;13.10;95.60
9466;DHT22;4771;48.726;9.006;2023-03-23T00:34:06;13.30;95.40
9466;DHT22;4771;48.726;9.006;2023-03-23T00:36:34;13.10;95.30
9466;DHT22;4771;48.726;9.006;2023-03-23T00:39:09;13.10;96.00
9466;DHT22;4771;48.726;9.006;2023-03-23T00:41:37;13.00;95.30
9466;DHT22;4771;48.726;9.006;2023-03-23T00:44:04;13.10;95.20
9466;DHT22;4771;48.726;9.006;2023-03-23T00:46:34;13.10;95.20
9466;DHT22;4771;48.726;9.006;2023-03-23T00:49:11;13.10;95.30
9466;DHT22;4771;48.726;9.006;2023-03-23T00:51:39;13.10;95.40
9466;DHT22;4771;48.726;9.006;2023-03-23T00:54:06;13.20;95.30
9466;DHT22;4771;48.726;9.006;2023-03-23T00:56:35;13.00;95.10
9466;DHT22;4771;48.726;9.006;2023-03-23T00:59:03;13.00;94.90
9466;DHT22;4771;48.726;9.006;2023-03-23T01:01:30;13.10;94.90
9466;DHT22;4771;48.726;9.006;2023-03-23T01:03:58;13.00;94.90
9466;DHT22;4771;48.726;9.006;2023-03-23T01:06:27;12.90;94.80
9466;DHT22;4771;48.726;9.006;2023-03-23T01:08:54;12.90;94.80
9466;DHT22;4771;48.726;9.006;2023-03-23T01:11:22;13.00;94.70
9466;DHT22;4771;48.726;9.006;2023-03-23T01:13:50;12.90;94.70
9466;DHT22;4771;48.726;9.006;2023-03-23T01:16:18;12.90;94.70
9466;DHT22;4771;48.726;9.006;2023-03-23T01:18:44;12.90;94.70
9466;DHT22;4771;48.726;9.006;2023-03-23T01:21:13;13.00;94.80
9466;DHT22;4771;48.726;9.006;2023-03-23T01:23:41;12.90;94.20
9466;DHT22;4771;48.726;9.006;2023-03-23T01:26:10;13.00;94.40
9466;DHT22;4771;48.726;9.006;2023-03-23T01:28:38;12.90;94.30
9466;DHT22;4771;48.726;9.006;2023-03-23T01:31:08;12.90;94.40
9466;DHT22;4771;48.726;9.006;2023-03-23T01:33:35;13.00;94.30
9466;DHT22;4771;48.726;9.006;2023-03-23T01:36:04;12.90;93.90
9466;DHT22;4771;48.726;9.006;2023-03-23T01:38:31;13.00;93.70
9466;DHT22;4771;48.726;9.006;2023-03-23T01:40:58;13.00;93.60
9466;DHT22;4771;48.726;9.006;2023-03-23T01:43:25;13.00;93.70
9466;DHT22;4771;48.726;9.006;2023-03-23T01:45:52;13.00;93.60
9466;DHT22;4771;48.726;9.006;2023-03-23T01:48:23;13.00;93.60
9466;DHT22;4771;48.726;9.006;2023-03-23T01:50:55;13.00;93.10
9466;DHT22;4771;48.726;9.006;2023-03-23T01:53:26;13.00;93.30
9466;DHT22;4771;48.726;9.006;2023-03-23T01:55:57;12.90;93.70
9466;DHT22;4771;48.726;9.006;2023-03-23T01:58:27;12.90;93.40
9466;DHT22;4771;48.726;9.006;2023-03-23T02:00:55;12.90;93.10
9466;DHT22;4771;48.726;9.006;2023-03-23T02:03:26;12.90;93.10
9466;DHT22;4771;48.726;9.006;2023-03-23T02:05:53;12.90;93.20
9466;DHT22;4771;48.726;9.006;2023-03-23T02:08:24;12.90;93.70
9466;DHT22;4771;48.726;9.006;2023-03-23T02:10:53;12.80;93.40
9466;DHT22;4771;48.726;9.006;2023-03-23T02:13:20;12.90;93.60
9466;DHT22;4771;48.726;9.006;2023-03-23T02:15:52;12.80;93.60
9466;DHT22;4771;48.726;9.006;2023-03-23T02:18:33;12.90;93.80
9466;DHT22;4771;48.726;9.006;2023-03-23T02:21:19;12.80;93.80
9466;DHT22;4771;48.726;9.006;2023-03-23T02:24:10;12.90;93.80
9466;DHT22;4771;48.726;9.006;2023-03-23T02:26:50;12.90;94.00
9466;DHT22;4771;48.726;9.006;2023-03-23T02:29:41;12.90;94.10
9466;DHT22;4771;48.726;9.006;2023-03-23T02:32:24;12.90;94.20
9466;DHT22;4771;48.726;9.006;2023-03-23T02:34:57;12.90;94.50
9466;DHT22;4771;48.726;9.006;2023-03-23T02:37:29;12.90;94.60
9466;DHT22;4771;48.726;9.006;2023-03-23T02:40:02;12.80;94.50
9466;DHT22;4771;48.726;9.006;2023-03-23T02:42:36;12.80;94.60
9466;DHT22;4771;48.726;9.006;2023-03-23T02:45:07;12.80;94.90
9466;DHT22;4771;48.726;9.006;2023-03-23T02:47:36;12.80;95.20
9466;DHT22;4771;48.726;9.006;2023-03-23T02:50:08;12.80;95.30
9466;DHT22;4771;48.726;9.006;2023-03-23T02:52:38;12.70;95.50
9466;DHT22;4771;48.726;9.006;2023-03-23T02:55:08;12.70;96.10
9466;DHT22;4771;48.726;9.006;2023-03-23T02:57:37;12.60;96.00
9466;DHT22;4771;48.726;9.006;2023-03-23T03:00:05;12.60;96.80
9466;DHT22;4771;48.726;9.006;2023-03-23T03:02:37;12.60;96.60
9466;DHT22;4771;48.726;9.006;2023-03-23T03:05:13;12.50;96.80
9466;DHT22;4771;48.726;9.006;2023-03-23T03:07:59;12.50;96.90
9466;DHT22;4771;48.726;9.006;2023-03-23T03:10:32;12.50;96.80
9466;DHT22;4771;48.726;9.006;2023-03-23T03:13:07;12.50;97.10
9466;DHT22;4771;48.726;9.006;2023-03-23T03:15:38;12.40;97.10
9466;DHT22;4771;48.726;9.006;2023-03-23T03:18:10;12.40;97.50
9466;DHT22;4771;48.726;9.006;2023-03-23T03:20:45;12.40;97.70
9466;DHT22;4771;48.726;9.006;2023-03-23T03:23:15;12.50;97.00
9466;DHT22;4771;48.726;9.006;2023-03-23T03:25:43;12.50;97.00
9466;DHT22;4771;48.726;9.006;2023-03-23T03:28:14;12.60;97.20
9466;DHT22;4771;48.726;9.006;2023-03-23T03:30:43;12.50;97.40
9466;DHT22;4771;48.726;9.006;2023-03-23T03:33:12;12.50;97.60
9466;DHT22;4771;48.726;9.006;2023-03-23T03:35:42;12.60;97.50
9466;DHT22;4771;48.726;9.006;2023-03-23T03:38:11;12.50;97.60
9466;DHT22;4771;48.726;9.006;2023-03-23T03:40:38;12.50;97.70
9466;DHT22;4771;48.726;9.006;2023-03-23T03:43:06;12.60;97.90
9466;DHT22;4771;48.726;9.006;2023-03-23T03:45:33;12.60;98.10
9466;DHT22;4771;48.726;9.006;2023-03-23T03:48:00;12.50;98.50
9466;DHT22;4771;48.726;9.006;2023-03-23T03:50:28;12.50;98.30
9466;DHT22;4771;48.726;9.006;2023-03-23T03:52:56;12.50;98.50
9466;DHT22;4771;48.726;9.006;2023-03-23T03:55:23;12.50;98.90
9466;DHT22;4771;48.726;9.006;2023-03-23T03:57:50;12.50;99.20
9466;DHT22;4771;48.726;9.006;2023-03-23T04:00:17;12.40;99.30
9466;DHT22;4771;48.726;9.006;2023-03-23T04:02:46;12.40;99.60
9466;DHT22;4771;48.726;9.006;2023-03-23T04:05:17;12.30;99.80
9466;DHT22;4771;48.726;9.006;2023-03-23T04:07:46;12.30;99.90
9466;DHT22;4771;48.726;9.006;2023-03-23T04:10:16;12.30;99.80
9466;DHT22;4771;48.726;9.006;2023-03-23T04:12:45;12.30;99.80
9466;DHT22;4771;48.726;9.006;2023-03-23T04:15:11;12.30;99.60
9466;DHT22;4771;48.726;9.006;2023-03-23T04:17:39;12.30;99.80
9466;DHT22;4771;48.726;9.006;2023-03-23T04:20:08;12.30;99.90
9466;DHT22;4771;48.726;9.006;2023-03-23T04:22:41;12.30;99.90
9466;DHT22;4771;48.726;9.006;2023-03-23T04:25:10;12.30;99.90
9466;DHT22;4771;48.726;9.006;2023-03-23T04:27:39;12.30;99.70
9466;DHT22;4771;48.726;9.006;2023-03-23T04:30:10;12.40;99.90
9466;DHT22;4771;48.726;9.006;2023-03-23T04:32:38;12.40;99.90
9466;DHT22;4771;48.726;9.006;2023-03-23T04:35:09;12.50;99.90
9466;DHT22;4771;48.726;9.006;2023-03-23T04:37:37;12.50;99.80
9466;DHT22;4771;48.726;9.006;2023-03-23T04:40:05;12.50;99.90
9466;DHT22;4771;48.726;9.006;2023-03-23T04:42:36;12.50;99.90
9466;DHT22;4771;48.726;9.006;2023-03-23T04:45:06;12.40;99.90
9466;DHT22;4771;48.726;9.006;2023-03-23T04:47:35;12.40;99.90
9466;DHT22;4771;48.726;9.006;2023-03-23T04:50:07;12.50;99.90
9466;DHT22;4771;48.726;9.006;2023-03-23T04:52:34;12.50;99.90
9466;DHT22;4771;48.726;9.006;2023-03-23T04:55:04;12.50;99.90
9466;DHT22;4771;48.726;9.006;2023-03-23T04:57:31;12.50;99.90
9466;DHT22;4771;48.726;9.006;2023-03-23T04:59:58;12.50;99.90
9466;DHT22;4771;48.726;9.006;2023-03-23T05:02:26;12.50;99.90
9466;DHT22;4771;48.726;9.006;2023-03-23T05:04:55;12.50;99.90
9466;DHT22;4771;48.726;9.006;2023-03-23T05:07:23;12.50;99.90
9466;DHT22;4771;48.726;9.006;2023-03-23T05:09:50;12.50;99.90
9466;DHT22;4771;48.726;9.006;2023-03-23T05:12:18;12.50;99.90
9466;DHT22;4771;48.726;9.006;2023-03-23T05:14:45;12.60;99.90
9466;DHT22;4771;48.726;9.006;2023-03-23T05:17:11;12.60;99.90
9466;DHT22;4771;48.726;9.006;2023-03-23T05:19:45;12.60;99.90
9466;DHT22;4771;48.726;9.006;2023-03-23T05:22:13;12.60;99.90
9466;DHT22;4771;48.726;9.006;2023-03-23T05:24:40;12.60;99.90
9466;DHT22;4771;48.726;9.006;2023-03-23T05:27:08;12.60;99.90
9466;DHT22;4771;48.726;9.006;2023-03-23T05:29:35;12.60;99.70
9466;DHT22;4771;48.726;9.006;2023-03-23T05:32:03;12.60;99.70
9466;DHT22;4771;48.726;9.006;2023-03-23T05:34:31;12.60;99.60
9466;DHT22;4771;48.726;9.006;2023-03-23T05:37:00;12.60;99.60
9466;DHT22;4771;48.726;9.006;2023-03-23T05:39:28;12.70;99.80
9466;DHT22;4771;48.726;9.006;2023-03-23T05:41:57;12.60;99.90
9466;DHT22;4771;48.726;9.006;2023-03-23T05:44:24;12.60;99.70
9466;DHT22;4771;48.726;9.006;2023-03-23T05:46:52;12.60;99.90
9466;DHT22;4771;48.726;9.006;2023-03-23T05:49:18;12.70;99.90
9466;DHT22;4771;48.726;9.006;2023-03-23T05:51:46;12.70;99.90
9466;DHT22;4771;48.726;9.006;2023-03-23T05:54:14;12.70;99.80
9466;DHT22;4771;48.726;9.006;2023-03-23T05:56:41;12.70;99.60
9466;DHT22;4771;48.726;9.006;2023-03-23T05:59:09;12.70;99.60
9466;DHT22;4771;48.726;9.006;2023-03-23T06:01:36;12.70;99.90
9466;DHT22;4771;48.726;9.006;2023-03-23T06:04:03;12.70;99.90
9466;DHT22;4771;48.726;9.006;2023-03-23T06:06:31;12.70;99.90
9466;DHT22;4771;48.726;9.006;2023-03-23T06:08:58;12.70;99.90
9466;DHT22;4771;48.726;9.006;2023-03-23T06:11:26;12.70;99.90
9466;DHT22;4771;48.726;9.006;2023-03-23T06:13:53;12.00;99.80
9466;DHT22;4771;48.726;9.006;2023-03-23T06:16:20;12.70;99.90
9466;DHT22;4771;48.726;9.006;2023-03-23T06:18:47;12.70;99.90
9466;DHT22;4771;48.726;9.006;2023-03-23T06:21:15;12.80;99.90
9466;DHT22;4771;48.726;9.006;2023-03-23T06:23:44;12.80;99.90
9466;DHT22;4771;48.726;9.006;2023-03-23T06:26:12;12.80;99.90
9466;DHT22;4771;48.726;9.006;2023-03-23T06:28:41;12.80;99.90
9466;DHT22;4771;48.726;9.006;2023-03-23T06:31:08;12.80;99.90
9466;DHT22;4771;48.726;9.006;2023-03-23T06:33:35;12.80;99.90
9466;DHT22;4771;48.726;9.006;2023-03-23T06:36:03;12.80;99.90
9466;DHT22;4771;48.726;9.006;2023-03-23T06:38:32;12.80;99.90
9466;DHT22;4771;48.726;9.006;2023-03-23T06:40:59;12.80;99.90
9466;DHT22;4771;48.726;9.006;2023-03-23T06:43:25;12.90;99.90
9466;DHT22;4771;48.726;9.006;2023-03-23T06:45:54;12.90;99.90
9466;DHT22;4771;48.726;9.006;2023-03-23T06:48:20;13.00;99.90
9466;DHT22;4771;48.726;9.006;2023-03-23T06:50:47;13.00;99.90
9466;DHT22;4771;48.726;9.006;2023-03-23T06:53:14;12.90;99.90
9466;DHT22;4771;48.726;9.006;2023-03-23T06:55:43;13.00;99.90
9466;DHT22;4771;48.726;9.006;2023-03-23T06:58:11;13.10;99.90
9466;DHT22;4771;48.726;9.006;2023-03-23T07:00:37;13.10;99.90
9466;DHT22;4771;48.726;9.006;2023-03-23T07:03:07;13.10;99.90
9466;DHT22;4771;48.726;9.006;2023-03-23T07:05:34;13.10;99.90
9466;DHT22;4771;48.726;9.006;2023-03-23T07:08:02;13.10;99.90
9466;DHT22;4771;48.726;9.006;2023-03-23T07:10:29;13.10;99.90
9466;DHT22;4771;48.726;9.006;2023-03-23T07:12:57;13.10;99.90
9466;DHT22;4771;48.726;9.006;2023-03-23T07:15:24;13.10;99.90
9466;DHT22;4771;48.726;9.006;2023-03-23T07:17:52;13.20;99.90
9466;DHT22;4771;48.726;9.006;2023-03-23T07:20:21;13.10;99.90
9466;DHT22;4771;48.726;9.006;2023-03-23T07:22:48;13.20;99.60
9466;DHT22;4771;48.726;9.006;2023-03-23T07:25:16;13.10;99.80
9466;DHT22;4771;48.726;9.006;2023-03-23T07:27:44;13.20;99.90
9466;DHT22;4771;48.726;9.006;2023-03-23T07:30:12;13.30;99.90
9466;DHT22;4771;48.726;9.006;2023-03-23T07:32:39;13.20;99.90
9466;DHT22;4771;48.726;9.006;2023-03-23T07:35:07;13.20;99.90
9466;DHT22;4771;48.726;9.006;2023-03-23T07:37:36;13.20;99.90
9466;DHT22;4771;48.726;9.006;2023-03-23T07:40:03;13.30;99.90
9466;DHT22;4771;48.726;9.006;2023-03-23T07:42:41;13.20;99.90
9466;DHT22;4771;48.726;9.006;2023-03-23T07:45:09;13.20;99.90
9466;DHT22;4771;48.726;9.006;2023-03-23T07:47:36;13.30;99.90
9466;DHT22;4771;48.726;9.006;2023-03-23T07:50:04;13.30;99.90
9466;DHT22;4771;48.726;9.006;2023-03-23T07:52:31;13.30;99.90
9466;DHT22;4771;48.726;9.006;2023-03-23T07:55:00;13.40;99.90
9466;DHT22;4771;48.726;9.006;2023-03-23T07:57:28;13.60;99.90
9466;DHT22;4771;48.726;9.006;2023-03-23T07:59:55;13.50;99.90
9466;DHT22;4771;48.726;9.006;2023-03-23T08:02:23;13.60;99.90
9466;DHT22;4771;48.726;9.006;2023-03-23T08:04:50;13.60;99.90
9466;DHT22;4771;48.726;9.006;2023-03-23T08:07:19;13.60;99.90
9466;DHT22;4771;48.726;9.006;2023-03-23T08:09:46;13.50;99.90
9466;DHT22;4771;48.726;9.006;2023-03-23T08:12:15;13.50;99.90
9466;DHT22;4771;48.726;9.006;2023-03-23T08:14:42;13.50;99.90
9466;DHT22;4771;48.726;9.006;2023-03-23T08:17:09;13.60;99.90
9466;DHT22;4771;48.726;9.006;2023-03-23T08:19:36;13.70;99.90
9466;DHT22;4771;48.726;9.006;2023-03-23T08:22:04;13.60;99.90
9466;DHT22;4771;48.726;9.006;2023-03-23T08:24:31;13.70;99.90
9466;DHT22;4771;48.726;9.006;2023-03-23T08:26:59;13.70;99.90
9466;DHT22;4771;48.726;9.006;2023-03-23T08:29:27;13.80;99.90
9466;DHT22;4771;48.726;9.006;2023-03-23T08:31:54;13.80;99.90
9466;DHT22;4771;48.726;9.006;2023-03-23T08:34:21;13.80;99.90
9466;DHT22;4771;48.726;9.006;2023-03-23T08:36:48;13.80;99.90
9466;DHT22;4771;48.726;9.006;2023-03-23T08:39:17;13.80;99.90
9466;DHT22;4771;48.726;9.006;2023-03-23T08:41:44;13.90;99.90
9466;DHT22;4771;48.726;9.006;2023-03-23T08:44:11;13.80;99.90
9466;DHT22;4771;48.726;9.006;2023-03-23T08:46:42;13.90;99.90
9466;DHT22;4771;48.726;9.006;2023-03-23T08:49:09;13.80;99.90
9466;DHT22;4771;48.726;9.006;2023-03-23T08:51:36;13.80;99.90
9466;DHT22;4771;48.726;9.006;2023-03-23T08:54:03;13.80;99.90
9466;DHT22;4771;48.726;9.006;2023-03-23T08:56:30;13.90;99.90
9466;DHT22;4771;48.726;9.006;2023-03-23T08:58:56;13.90;99.90
9466;DHT22;4771;48.726;9.006;2023-03-23T09:01:23;13.80;99.90
9466;DHT22;4771;48.726;9.006;2023-03-23T09:03:53;13.80;99.90
9466;DHT22;4771;48.726;9.006;2023-03-23T09:06:20;13.90;99.90
9466;DHT22;4771;48.726;9.006;2023-03-23T09:08:47;13.90;99.90
9466;DHT22;4771;48.726;9.006;2023-03-23T09:11:15;14.00;99.90
9466;DHT22;4771;48.726;9.006;2023-03-23T09:13:42;14.00;99.90
9466;DHT22;4771;48.726;9.006;2023-03-23T09:16:09;14.10;99.90
9466;DHT22;4771;48.726;9.006;2023-03-23T09:18:36;14.10;99.90
9466;DHT22;4771;48.726;9.006;2023-03-23T09:21:05;14.10;99.90
9466;DHT22;4771;48.726;9.006;2023-03-23T09:23:32;14.10;99.90
9466;DHT22;4771;48.726;9.006;2023-03-23T09:26:00;14.10;99.90
9466;DHT22;4771;48.726;9.006;2023-03-23T09:28:28;14.10;99.90
9466;DHT22;4771;48.726;9.006;2023-03-23T09:30:56;14.10;99.90
9466;DHT22;4771;48.726;9.006;2023-03-23T09:33:24;14.10;99.90
9466;DHT22;4771;48.726;9.006;2023-03-23T09:35:51;14.10;99.90
9466;DHT22;4771;48.726;9.006;2023-03-23T09:38:20;14.10;99.90
9466;DHT22;4771;48.726;9.006;2023-03-23T09:40:48;14.10;99.90
9466;DHT22;4771;48.726;9.006;2023-03-23T09:43:31;14.20;99.90
9466;DHT22;4771;48.726;9.006;2023-03-23T09:48:53;14.10;99.90
9466;DHT22;4771;48.726;9.006;2023-03-23T09:51:31;14.20;99.90
9466;DHT22;4771;48.726;9.006;2023-03-23T09:54:04;14.20;99.90
9466;DHT22;4771;48.726;9.006;2023-03-23T09:56:33;14.20;99.90
9466;DHT22;4771;48.726;9.006;2023-03-23T09:59:19;14.30;99.90
9466;DHT22;4771;48.726;9.006;2023-03-23T10:01:48;14.30;99.90
9466;DHT22;4771;48.726;9.006;2023-03-23T10:04:28;14.40;99.90
9466;DHT22;4771;48.726;9.006;2023-03-23T10:06:58;14.60;99.90
9466;DHT22;4771;48.726;9.006;2023-03-23T10:09:28;14.70;99.90
9466;DHT22;4771;48.726;9.006;2023-03-23T10:12:04;14.80;99.90
9466;DHT22;4771;48.726;9.006;2023-03-23T10:14:43;14.80;99.90
9466;DHT22;4771;48.726;9.006;2023-03-23T10:17:14;14.70;99.90
9466;DHT22;4771;48.726;9.006;2023-03-23T10:19:51;14.70;99.90
9466;DHT22;4771;48.726;9.006;2023-03-23T10:22:25;14.80;99.90
9466;DHT22;4771;48.726;9.006;2023-03-23T10:25:03;14.80;99.90
9466;DHT22;4771;48.726;9.006;2023-03-23T10:27:38;14.80;99.90
9466;DHT22;4771;48.726;9.006;2023-03-23T10:30:17;14.70;99.90
9466;DHT22;4771;48.726;9.006;2023-03-23T10:32:48;14.60;99.90
9466;DHT22;4771;48.726;9.006;2023-03-23T10:35:20;14.60;99.90
9466;DHT22;4771;48.726;9.006;2023-03-23T10:37:52;14.60;99.90
9466;DHT22;4771;48.726;9.006;2023-03-23T10:40:23;14.60;99.90
9466;DHT22;4771;48.726;9.006;2023-03-23T10:42:51;14.60;99.90
9466;DHT22;4771;48.726;9.006;2023-03-23T10:45:22;14.70;99.90
9466;DHT22;4771;48.726;9.006;2023-03-23T10:47:55;15.10;99.90
9466;DHT22;4771;48.726;9.006;2023-03-23T10:50:27;15.20;99.90
9466;DHT22;4771;48.726;9.006;2023-03-23T10:52:57;15.20;99.90
9466;DHT22;4771;48.726;9.006;2023-03-23T10:55:37;15.30;99.90
9466;DHT22;4771;48.726;9.006;2023-03-23T10:58:06;15.30;99.90
9466;DHT22;4771;48.726;9.006;2023-03-23T11:00:40;15.30;99.90
9466;DHT22;4771;48.726;9.006;2023-03-23T11:03:23;15.50;99.90
9466;DHT22;4771;48.726;9.006;2023-03-23T11:05:54;15.50;99.90
9466;DHT22;4771;48.726;9.006;2023-03-23T11:08:24;15.50;99.90
9466;DHT22;4771;48.726;9.006;2023-03-23T11:10:54;15.60;99.90
9466;DHT22;4771;48.726;9.006;2023-03-23T11:13:27;15.50;99.90
9466;DHT22;4771;48.726;9.006;2023-03-23T11:15:55;15.40;99.90
9466;DHT22;4771;48.726;9.006;2023-03-23T11:18:23;15.30;99.90
9466;DHT22;4771;48.726;9.006;2023-03-23T11:20:54;15.30;99.90
9466;DHT22;4771;48.726;9.006;2023-03-23T11:23:24;15.20;99.90
9466;DHT22;4771;48.726;9.006;2023-03-23T11:26:00;15.30;99.90
9466;DHT22;4771;48.726;9.006;2023-03-23T11:28:31;15.20;99.90
9466;DHT22;4771;48.726;9.006;2023-03-23T11:30:59;15.30;99.90
9466;DHT22;4771;48.726;9.006;2023-03-23T11:33:29;15.30;99.90
9466;DHT22;4771;48.726;9.006;2023-03-23T11:35:57;15.40;99.90
9466;DHT22;4771;48.726;9.006;2023-03-23T11:38:24;15.50;99.90
9466;DHT22;4771;48.726;9.006;2023-03-23T11:40:54;15.60;99.90
9466;DHT22;4771;48.726;9.006;2023-03-23T11:43:23;15.60;99.90
9466;DHT22;4771;48.726;9.006;2023-03-23T11:45:59;15.70;99.90
9466;DHT22;4771;48.726;9.006;2023-03-23T11:48:35;15.70;99.90
9466;DHT22;4771;48.726;9.006;2023-03-23T11:51:08;15.60;99.90
9466;DHT22;4771;48.726;9.006;2023-03-23T11:53:43;15.60;99.90
9466;DHT22;4771;48.726;9.006;2023-03-23T11:56:22;15.60;99.90
9466;DHT22;4771;48.726;9.006;2023-03-23T11:58:50;15.70;99.90
9466;DHT22;4771;48.726;9.006;2023-03-23T12:01:27;15.60;99.90
9466;DHT22;4771;48.726;9.006;2023-03-23T12:04:09;15.70;99.90
9466;DHT22;4771;48.726;9.006;2023-03-23T12:06:46;15.60;99.90
9466;DHT22;4771;48.726;9.006;2023-03-23T12:09:26;15.60;99.90
9466;DHT22;4771;48.726;9.006;2023-03-23T12:12:08;15.60;99.90
9466;DHT22;4771;48.726;9.006;2023-03-23T12:14:41;15.70;99.90
9466;DHT22;4771;48.726;9.006;2023-03-23T12:17:20;15.70;99.90
9466;DHT22;4771;48.726;9.006;2023-03-23T12:19:56;15.70;99.90
9466;DHT22;4771;48.726;9.006;2023-03-23T12:22:35;15.70;99.90
9466;DHT22;4771;48.726;9.006;2023-03-23T12:25:30;15.70;99.90
9466;DHT22;4771;48.726;9.006;2023-03-23T12:28:04;15.70;99.90
9466;DHT22;4771;48.726;9.006;2023-03-23T12:30:38;15.70;99.90
9466;DHT22;4771;48.726;9.006;2023-03-23T12:33:23;15.60;99.90
9466;DHT22;4771;48.726;9.006;2023-03-23T12:36:03;15.70;99.90
9466;DHT22;4771;48.726;9.006;2023-03-23T12:38:56;15.50;99.90
9466;DHT22;4771;48.726;9.006;2023-03-23T12:41:29;15.60;99.90
9466;DHT22;4771;48.726;9.006;2023-03-23T12:44:03;15.70;99.90
9466;DHT22;4771;48.726;9.006;2023-03-23T12:46:44;15.80;99.90
9466;DHT22;4771;48.726;9.006;2023-03-23T12:49:19;15.80;99.90
9466;DHT22;4771;48.726;9.006;2023-03-23T12:51:52;15.90;99.90
9466;DHT22;4771;48.726;9.006;2023-03-23T12:54:26;16.10;99.90
9466;DHT22;4771;48.726;9.006;2023-03-23T12:56:58;16.10;99.90
9466;DHT22;4771;48.726;9.006;2023-03-23T12:59:33;16.20;99.90
9466;DHT22;4771;48.726;9.006;2023-03-23T13:02:10;16.30;99.90
9466;DHT22;4771;48.726;9.006;2023-03-23T13:04:41;16.30;99.90
9466;DHT22;4771;48.726;9.006;2023-03-23T13:07:14;16.20;99.90
9466;DHT22;4771;48.726;9.006;2023-03-23T13:09:49;16.10;99.90
9466;DHT22;4771;48.726;9.006;2023-03-23T13:12:17;16.10;99.90
9466;DHT22;4771;48.726;9.006;2023-03-23T13:14:54;16.10;99.90
9466;DHT22;4771;48.726;9.006;2023-03-23T13:17:29;16.20;99.90
9466;DHT22;4771;48.726;9.006;2023-03-23T13:23:12;16.30;99.90
9466;DHT22;4771;48.726;9.006;2023-03-23T13:25:48;16.30;99.90
9466;DHT22;4771;48.726;9.006;2023-03-23T13:28:17;16.40;99.90
9466;DHT22;4771;48.726;9.006;2023-03-23T13:30:59;16.30;99.90
9466;DHT22;4771;48.726;9.006;2023-03-23T13:33:30;16.40;99.90
9466;DHT22;4771;48.726;9.006;2023-03-23T13:36:07;16.40;99.90
9466;DHT22;4771;48.726;9.006;2023-03-23T13:38:36;16.40;99.90
9466;DHT22;4771;48.726;9.006;2023-03-23T13:41:11;16.40;99.90
9466;DHT22;4771;48.726;9.006;2023-03-23T13:43:40;16.40;99.90
9466;DHT22;4771;48.726;9.006;2023-03-23T13:46:13;16.40;99.90
9466;DHT22;4771;48.726;9.006;2023-03-23T13:48:51;16.40;99.90
9466;DHT22;4771;48.726;9.006;2023-03-23T13:51:34;16.40;99.90
9466;DHT22;4771;48.726;9.006;2023-03-23T13:54:20;16.50;99.90
9466;DHT22;4771;48.726;9.006;2023-03-23T13:56:54;16.40;99.90
9466;DHT22;4771;48.726;9.006;2023-03-23T13:59:31;16.40;99.90
9466;DHT22;4771;48.726;9.006;2023-03-23T14:02:36;16.40;99.90
9466;DHT22;4771;48.726;9.006;2023-03-23T14:05:30;16.40;99.90
9466;DHT22;4771;48.726;9.006;2023-03-23T14:08:00;16.50;99.90
9466;DHT22;4771;48.726;9.006;2023-03-23T14:10:35;16.40;99.90
9466;DHT22;4771;48.726;9.006;2023-03-23T14:13:04;16.40;99.90
9466;DHT22;4771;48.726;9.006;2023-03-23T14:15:56;16.40;99.10
9466;DHT22;4771;48.726;9.006;2023-03-23T14:18:27;16.40;99.70
9466;DHT22;4771;48.726;9.006;2023-03-23T14:20:56;16.40;99.10
9466;DHT22;4771;48.726;9.006;2023-03-23T14:23:23;16.40;98.60
9466;DHT22;4771;48.726;9.006;2023-03-23T14:25:58;16.40;98.30
9466;DHT22;4771;48.726;9.006;2023-03-23T14:28:37;16.30;97.90
9466;DHT22;4771;48.726;9.006;2023-03-23T14:31:04;16.30;97.50
9466;DHT22;4771;48.726;9.006;2023-03-23T14:33:33;16.30;97.70
9466;DHT22;4771;48.726;9.006;2023-03-23T14:36:00;16.30;97.40
9466;DHT22;4771;48.726;9.006;2023-03-23T14:38:27;16.30;97.30
9466;DHT22;4771;48.726;9.006;2023-03-23T14:41:01;16.20;97.30
9466;DHT22;4771;48.726;9.006;2023-03-23T14:43:29;16.20;97.50
9466;DHT22;4771;48.726;9.006;2023-03-23T14:46:00;16.30;97.40
9466;DHT22;4771;48.726;9.006;2023-03-23T14:48:28;16.20;97.70
9466;DHT22;4771;48.726;9.006;2023-03-23T14:50:59;16.30;97.20
9466;DHT22;4771;48.726;9.006;2023-03-23T14:53:32;16.30;96.70
9466;DHT22;4771;48.726;9.006;2023-03-23T14:56:01;16.30;96.30
9466;DHT22;4771;48.726;9.006;2023-03-23T14:58:30;16.30;96.00
9466;DHT22;4771;48.726;9.006;2023-03-23T15:00:59;16.20;95.70
9466;DHT22;4771;48.726;9.006;2023-03-23T15:03:27;16.20;96.10
9466;DHT22;4771;48.726;9.006;2023-03-23T15:05:59;16.30;96.10
9466;DHT22;4771;48.726;9.006;2023-03-23T15:08:29;16.20;96.00
9466;DHT22;4771;48.726;9.006;2023-03-23T15:11:04;16.20;95.40
9466;DHT22;4771;48.726;9.006;2023-03-23T15:13:32;16.20;95.70
9466;DHT22;4771;48.726;9.006;2023-03-23T15:16:11;16.30;95.40
9466;DHT22;4771;48.726;9.006;2023-03-23T15:18:40;16.30;94.20
9466;DHT22;4771;48.726;9.006;2023-03-23T15:21:11;16.30;94.20
9466;DHT22;4771;48.726;9.006;2023-03-23T15:23:43;16.30;94.60
9466;DHT22;4771;48.726;9.006;2023-03-23T15:26:29;16.30;94.30
9466;DHT22;4771;48.726;9.006;2023-03-23T15:29:18;16.30;94.90
9466;DHT22;4771;48.726;9.006;2023-03-23T15:31:47;16.20;93.50
9466;DHT22;4771;48.726;9.006;2023-03-23T15:34:28;16.20;93.20
9466;DHT22;4771;48.726;9.006;2023-03-23T15:37:00;16.20;92.80
9466;DHT22;4771;48.726;9.006;2023-03-23T15:39:27;16.20;93.20
9466;DHT22;4771;48.726;9.006;2023-03-23T15:41:55;16.20;93.10
9466;DHT22;4771;48.726;9.006;2023-03-23T15:44:28;16.20;92.90
9466;DHT22;4771;48.726;9.006;2023-03-23T15:47:13;16.10;92.70
9466;DHT22;4771;48.726;9.006;2023-03-23T15:49:41;16.00;92.80
9466;DHT22;4771;48.726;9.006;2023-03-23T15:52:11;15.90;92.80
9466;DHT22;4771;48.726;9.006;2023-03-23T15:54:39;16.00;93.20
9466;DHT22;4771;48.726;9.006;2023-03-23T15:57:12;16.00;93.70
9466;DHT22;4771;48.726;9.006;2023-03-23T15:59:39;16.00;94.20
9466;DHT22;4771;48.726;9.006;2023-03-23T16:02:08;16.00;93.10
9466;DHT22;4771;48.726;9.006;2023-03-23T16:04:36;16.00;93.40
9466;DHT22;4771;48.726;9.006;2023-03-23T16:07:03;15.90;92.70
9466;DHT22;4771;48.726;9.006;2023-03-23T16:09:32;15.90;93.00
9466;DHT22;4771;48.726;9.006;2023-03-23T16:11:59;15.90;93.30
9466;DHT22;4771;48.726;9.006;2023-03-23T16:14:26;15.80;93.50
9466;DHT22;4771;48.726;9.006;2023-03-23T16:16:53;15.80;93.50
9466;DHT22;4771;48.726;9.006;2023-03-23T16:19:20;15.70;93.20
9466;DHT22;4771;48.726;9.006;2023-03-23T16:21:48;15.70;93.70
9466;DHT22;4771;48.726;9.006;2023-03-23T16:24:15;15.70;93.90
9466;DHT22;4771;48.726;9.006;2023-03-23T16:26:44;15.70;93.50
9466;DHT22;4771;48.726;9.006;2023-03-23T16:29:12;15.60;93.50
9466;DHT22;4771;48.726;9.006;2023-03-23T16:31:39;15.60;93.50